createdAt,value
2023-04-07T00:02:10.067Z,5.99
2023-04-07T00:04:37.626Z,5.93
2023-04-07T00:07:05.085Z,6.00
2023-04-07T00:09:32.616Z,6.00
2023-04-07T00:12:02.695Z,5.98
2023-04-07T00:14:30.266Z,5.97
2023-04-07T00:16:59.050Z,5.97
2023-04-07T00:19:27.004Z,5.94
2023-04-07T00:21:54.434Z,5.92
2023-04-07T00:24:33.371Z,5.92
2023-04-07T00:27:02.162Z,5.88
2023-04-07T00:29:29.732Z,5.87
2023-04-07T00:31:57.244Z,5.86
2023-04-07T00:34:26.072Z,5.82
2023-04-07T00:36:53.458Z,5.81
2023-04-07T00:39:21.505Z,5.72
2023-04-07T00:41:49.096Z,5.65
2023-04-07T00:44:17.136Z,5.61
2023-04-07T00:46:45.177Z,5.61
2023-04-07T00:49:13.301Z,5.58
2023-04-07T00:51:42.250Z,5.54
2023-04-07T00:54:10.548Z,5.49
2023-04-07T00:56:38.085Z,5.51
2023-04-07T00:59:06.382Z,5.45
2023-04-07T01:01:39.729Z,5.43
2023-04-07T01:04:10.001Z,5.45
2023-04-07T01:06:48.191Z,5.41
2023-04-07T01:09:21.715Z,5.42
2023-04-07T01:11:59.869Z,5.33
2023-04-07T01:14:33.056Z,5.28
2023-04-07T01:17:09.935Z,5.27
2023-04-07T01:19:42.206Z,5.21
2023-04-07T01:22:16.817Z,5.15
2023-04-07T01:25:28.843Z,5.15
2023-04-07T01:28:10.582Z,5.19
2023-04-07T01:30:43.904Z,5.21
2023-04-07T01:33:14.201Z,5.25
2023-04-07T01:35:42.870Z,5.22
2023-04-07T01:38:13.385Z,5.19
2023-04-07T01:40:41.628Z,5.18
2023-04-07T01:43:09.966Z,5.16
2023-04-07T01:45:39.753Z,5.14
2023-04-07T01:48:08.349Z,5.16
2023-04-07T01:50:36.240Z,5.17
2023-04-07T01:53:04.567Z,5.23
2023-04-07T01:55:32.610Z,5.15
2023-04-07T01:58:06.998Z,5.17
2023-04-07T02:00:36.308Z,5.19
2023-04-07T02:03:20.675Z,5.23
2023-04-07T02:05:50.343Z,5.23
2023-04-07T02:08:21.696Z,5.22
2023-04-07T02:10:51.522Z,5.18
2023-04-07T02:13:20.835Z,5.21
2023-04-07T02:15:51.817Z,5.21
2023-04-07T02:18:22.207Z,5.21
2023-04-07T02:20:52.175Z,5.23
2023-04-07T02:23:19.644Z,5.26
2023-04-07T02:25:47.281Z,5.25
2023-04-07T02:28:14.741Z,5.28
2023-04-07T02:30:42.210Z,5.26
2023-04-07T02:33:09.642Z,5.24
2023-04-07T02:35:38.381Z,5.27
2023-04-07T02:38:06.106Z,5.21
2023-04-07T02:40:36.788Z,5.24
2023-04-07T02:43:05.196Z,5.28
2023-04-07T02:45:32.774Z,5.25
2023-04-07T02:48:00.294Z,5.21
2023-04-07T02:50:29.024Z,5.23
2023-04-07T02:52:57.860Z,5.26
2023-04-07T02:55:25.425Z,5.30
2023-04-07T02:57:53.012Z,5.34
2023-04-07T03:00:38.522Z,5.37
2023-04-07T03:03:27.882Z,5.35
2023-04-07T03:06:10.416Z,5.35
2023-04-07T03:08:47.903Z,5.36
2023-04-07T03:11:15.490Z,5.35
2023-04-07T03:13:43.487Z,5.35
2023-04-07T03:16:11.010Z,5.31
2023-04-07T03:18:49.452Z,5.32
2023-04-07T03:21:17.261Z,5.30
2023-04-07T03:23:45.785Z,5.34
2023-04-07T03:26:14.617Z,5.34
2023-04-07T03:28:41.994Z,5.33
2023-04-07T03:31:09.454Z,5.35
2023-04-07T03:33:36.888Z,5.33
2023-04-07T03:36:04.938Z,5.29
2023-04-07T03:38:32.779Z,5.33
2023-04-07T03:41:03.339Z,5.32
2023-04-07T03:43:32.243Z,5.30
2023-04-07T03:46:02.234Z,5.30
2023-04-07T03:48:29.900Z,5.32
2023-04-07T03:51:08.947Z,5.32
2023-04-07T03:53:36.637Z,5.31
2023-04-07T03:56:29.043Z,5.28
2023-04-07T03:59:00.286Z,5.33
2023-04-07T04:01:34.595Z,5.34
2023-04-07T04:04:08.669Z,5.25
2023-04-07T04:06:36.204Z,5.31
2023-04-07T04:09:15.572Z,5.34
2023-04-07T04:11:46.974Z,5.37
2023-04-07T04:14:17.382Z,5.33
2023-04-07T04:16:51.289Z,5.37
2023-04-07T04:19:32.693Z,5.34
2023-04-07T04:22:06.204Z,5.32
2023-04-07T04:24:41.825Z,5.35
2023-04-07T04:27:09.602Z,5.37
2023-04-07T04:29:38.876Z,5.39
2023-04-07T04:32:09.052Z,5.36
2023-04-07T04:34:36.669Z,5.37
2023-04-07T04:37:04.848Z,5.36
2023-04-07T04:39:32.587Z,5.38
2023-04-07T04:42:01.131Z,5.41
2023-04-07T04:44:33.822Z,5.38
2023-04-07T04:47:04.982Z,5.36
2023-04-07T04:49:32.956Z,5.33
2023-04-07T04:52:03.248Z,5.36
2023-04-07T04:54:36.348Z,5.37
2023-04-07T04:57:04.140Z,5.21
2023-04-07T04:59:31.733Z,5.34
2023-04-07T05:02:04.333Z,5.34
2023-04-07T05:04:32.964Z,5.34
2023-04-07T05:07:20.199Z,5.35
2023-04-07T05:09:47.828Z,5.29
2023-04-07T05:12:17.232Z,5.26
2023-04-07T05:14:49.205Z,5.27
2023-04-07T05:17:18.270Z,5.26
2023-04-07T05:19:45.826Z,5.27
2023-04-07T05:22:21.818Z,5.24
2023-04-07T05:24:50.287Z,5.24
2023-04-07T05:27:18.764Z,5.21
2023-04-07T05:29:50.438Z,5.18
2023-04-07T05:32:28.475Z,5.17
2023-04-07T05:34:57.356Z,5.20
2023-04-07T05:37:28.703Z,5.22
2023-04-07T05:39:57.078Z,5.28
2023-04-07T05:42:24.554Z,5.26
2023-04-07T05:44:56.335Z,5.27
2023-04-07T05:47:26.837Z,5.30
2023-04-07T05:49:55.299Z,5.32
2023-04-07T05:52:22.796Z,5.31
2023-04-07T05:54:57.210Z,5.34
2023-04-07T05:57:28.554Z,5.37
2023-04-07T05:59:57.688Z,5.42
2023-04-07T06:02:26.724Z,5.43
2023-04-07T06:04:54.945Z,5.46
2023-04-07T06:07:22.699Z,5.51
2023-04-07T06:09:50.405Z,5.52
2023-04-07T06:12:17.902Z,5.53
2023-04-07T06:14:51.497Z,5.56
2023-04-07T06:17:19.213Z,5.60
2023-04-07T06:19:49.937Z,5.64
2023-04-07T06:22:17.447Z,5.69
2023-04-07T06:24:44.869Z,5.76
2023-04-07T06:27:12.781Z,5.76
2023-04-07T06:29:41.094Z,5.84
2023-04-07T06:32:08.631Z,5.85
2023-04-07T06:34:36.970Z,5.92
2023-04-07T06:37:06.776Z,5.94
2023-04-07T06:39:34.269Z,6.00
2023-04-07T06:42:01.721Z,6.01
2023-04-07T06:44:29.104Z,6.06
2023-04-07T06:46:56.518Z,6.09
2023-04-07T06:49:24.070Z,6.14
2023-04-07T06:51:51.503Z,6.18
2023-04-07T06:54:20.312Z,6.18
2023-04-07T06:56:47.748Z,6.22
2023-04-07T06:59:15.147Z,6.27
2023-04-07T07:01:43.745Z,6.28
2023-04-07T07:04:11.353Z,6.31
2023-04-07T07:06:38.824Z,6.32
2023-04-07T07:09:06.358Z,6.37
2023-04-07T07:11:35.363Z,6.41
2023-04-07T07:14:02.807Z,6.37
2023-04-07T07:16:30.241Z,6.46
2023-04-07T07:19:00.752Z,6.61
2023-04-07T07:21:31.804Z,6.68
2023-04-07T07:23:59.242Z,6.71
2023-04-07T07:26:27.183Z,6.82
2023-04-07T07:28:56.091Z,6.83
2023-04-07T07:31:24.072Z,6.90
2023-04-07T07:33:51.986Z,6.91
2023-04-07T07:36:19.480Z,7.08
2023-04-07T07:38:46.937Z,7.34
2023-04-07T07:41:14.353Z,7.58
2023-04-07T07:43:42.005Z,7.82
2023-04-07T07:46:10.890Z,8.06
2023-04-07T07:48:38.466Z,8.22
2023-04-07T07:51:06.172Z,8.14
2023-04-07T07:53:33.645Z,8.28
2023-04-07T07:56:01.904Z,8.17
2023-04-07T07:58:29.359Z,8.02
2023-04-07T08:00:56.834Z,8.15
2023-04-07T08:03:25.975Z,8.79
2023-04-07T08:05:53.985Z,9.08
2023-04-07T08:08:24.654Z,9.52
2023-04-07T08:10:52.051Z,9.82
2023-04-07T08:13:19.436Z,9.53
2023-04-07T08:15:46.887Z,9.39
2023-04-07T08:18:14.475Z,9.27
2023-04-07T08:20:43.312Z,9.27
2023-04-07T08:23:10.547Z,9.25
2023-04-07T08:25:40.093Z,9.21
2023-04-07T08:28:07.498Z,9.48
2023-04-07T08:30:34.886Z,10.25
2023-04-07T08:33:05.914Z,10.80
2023-04-07T08:35:33.514Z,11.46
2023-04-07T08:38:03.503Z,11.71
2023-04-07T08:40:31.964Z,12.32
2023-04-07T08:43:01.316Z,12.35
2023-04-07T08:45:29.641Z,12.71
2023-04-07T08:48:00.961Z,12.53
2023-04-07T08:50:28.779Z,12.58
2023-04-07T08:52:57.457Z,12.99
2023-04-07T08:55:26.593Z,13.56
2023-04-07T08:57:54.763Z,13.01
2023-04-07T09:00:28.072Z,12.81
2023-04-07T09:03:13.055Z,12.82
2023-04-07T09:05:40.827Z,13.47
2023-04-07T09:08:08.327Z,13.67
2023-04-07T09:10:37.811Z,14.19
2023-04-07T09:13:05.431Z,14.18
2023-04-07T09:15:32.973Z,14.40
2023-04-07T09:18:00.608Z,14.78
2023-04-07T09:20:28.099Z,14.27
2023-04-07T09:22:56.430Z,13.87
2023-04-07T09:25:27.248Z,13.35
2023-04-07T09:27:58.635Z,13.67
2023-04-07T09:30:27.023Z,14.16
2023-04-07T09:32:54.992Z,14.56
2023-04-07T09:35:23.922Z,14.06
2023-04-07T09:38:05.154Z,13.87
2023-04-07T09:40:32.978Z,12.74
2023-04-07T09:43:04.027Z,12.82
2023-04-07T09:45:35.749Z,12.12
2023-04-07T09:48:07.738Z,11.80
2023-04-07T09:50:36.973Z,12.07
2023-04-07T09:53:04.927Z,11.89
2023-04-07T09:55:33.756Z,12.16
2023-04-07T09:58:04.411Z,12.24
2023-04-07T10:00:32.375Z,12.06
2023-04-07T10:03:00.841Z,12.03
2023-04-07T10:05:29.021Z,12.19
2023-04-07T10:07:57.123Z,12.47
2023-04-07T10:10:26.567Z,12.58
2023-04-07T10:12:55.540Z,12.26
2023-04-07T10:15:24.981Z,12.36
2023-04-07T10:17:54.447Z,12.02
2023-04-07T10:20:22.823Z,12.46
2023-04-07T10:22:51.390Z,12.39
2023-04-07T10:25:22.545Z,12.60
2023-04-07T10:27:53.797Z,12.38
2023-04-07T10:30:27.067Z,12.01
2023-04-07T10:33:12.875Z,12.54
2023-04-07T10:36:04.651Z,12.21
2023-04-07T10:38:32.853Z,12.60
2023-04-07T10:41:00.046Z,12.94
2023-04-07T10:43:41.655Z,13.34
2023-04-07T10:46:09.988Z,13.30
2023-04-07T10:48:37.122Z,13.74
2023-04-07T10:51:19.436Z,13.19
2023-04-07T10:54:23.495Z,13.48
2023-04-07T10:57:14.130Z,13.45
2023-04-07T11:00:15.222Z,13.94
2023-04-07T11:02:44.722Z,14.41
2023-04-07T11:05:25.215Z,13.65
2023-04-07T11:07:55.572Z,12.97
2023-04-07T11:10:23.281Z,13.59
2023-04-07T11:13:06.290Z,14.10
2023-04-07T11:15:35.496Z,14.65
2023-04-07T11:18:09.978Z,14.36
2023-04-07T11:20:48.511Z,14.23
2023-04-07T11:23:18.076Z,14.10
2023-04-07T11:25:47.322Z,13.65
2023-04-07T11:28:15.104Z,14.15
2023-04-07T11:30:47.395Z,13.66
2023-04-07T11:33:19.398Z,13.83
2023-04-07T11:35:52.270Z,13.11
2023-04-07T11:38:21.147Z,13.19
2023-04-07T11:40:56.766Z,13.66
2023-04-07T11:43:42.855Z,13.60
2023-04-07T11:46:12.308Z,13.76
2023-04-07T11:48:42.262Z,13.74
2023-04-07T11:51:16.493Z,13.83
2023-04-07T11:53:44.100Z,14.48
2023-04-07T11:56:17.014Z,14.75
2023-04-07T11:58:48.933Z,14.77
2023-04-07T12:01:16.948Z,14.41
2023-04-07T12:03:59.989Z,14.87
2023-04-07T12:06:30.825Z,14.64
2023-04-07T12:08:58.347Z,14.99
2023-04-07T12:11:26.476Z,14.59
2023-04-07T12:13:54.146Z,14.05
2023-04-07T12:16:22.907Z,13.93
2023-04-07T12:18:51.585Z,14.04
2023-04-07T12:21:20.471Z,14.25
2023-04-07T12:23:48.600Z,13.97
2023-04-07T12:26:16.126Z,13.03
2023-04-07T12:28:44.066Z,13.39
2023-04-07T12:31:11.538Z,13.48
2023-04-07T12:33:38.966Z,13.53
2023-04-07T12:36:07.213Z,13.77
2023-04-07T12:38:36.054Z,13.36
2023-04-07T12:41:03.730Z,13.65
2023-04-07T12:43:31.720Z,13.29
2023-04-07T12:45:59.207Z,13.20
2023-04-07T12:48:29.439Z,13.33
2023-04-07T12:50:56.852Z,13.66
2023-04-07T12:53:24.740Z,12.99
2023-04-07T12:55:53.802Z,13.68
2023-04-07T12:58:21.182Z,13.76
2023-04-07T13:00:48.680Z,13.83
2023-04-07T13:03:16.801Z,13.71
2023-04-07T13:05:44.434Z,13.74
2023-04-07T13:08:12.064Z,13.79
2023-04-07T13:10:39.551Z,14.09
2023-04-07T13:13:08.351Z,14.10
2023-04-07T13:15:36.142Z,13.86
2023-04-07T13:18:04.915Z,13.53
2023-04-07T13:20:32.842Z,13.35
2023-04-07T13:23:07.851Z,12.62
2023-04-07T13:25:37.576Z,12.69
2023-04-07T13:28:05.840Z,12.70
2023-04-07T13:30:34.842Z,12.96
2023-04-07T13:33:02.422Z,12.86
2023-04-07T13:35:35.427Z,13.03
2023-04-07T13:38:03.452Z,13.39
2023-04-07T13:40:31.127Z,13.37
2023-04-07T13:43:00.472Z,13.29
2023-04-07T13:45:28.405Z,13.20
2023-04-07T13:47:57.924Z,13.01
2023-04-07T13:50:26.202Z,13.16
2023-04-07T13:52:55.079Z,13.65
2023-04-07T13:55:22.560Z,13.78
2023-04-07T13:57:50.061Z,13.97
2023-04-07T14:00:18.144Z,13.65
2023-04-07T14:02:47.652Z,13.52
2023-04-07T14:05:16.776Z,13.08
2023-04-07T14:07:44.173Z,13.11
2023-04-07T14:10:11.632Z,13.17
2023-04-07T14:12:39.138Z,12.90
2023-04-07T14:15:07.773Z,13.14
2023-04-07T14:17:35.179Z,13.17
2023-04-07T14:20:03.981Z,13.35
2023-04-07T14:22:32.829Z,12.97
2023-04-07T14:25:00.585Z,13.15
2023-04-07T14:27:31.071Z,13.04
2023-04-07T14:29:59.572Z,12.76
2023-04-07T14:32:29.301Z,13.03
2023-04-07T14:34:59.132Z,13.14
2023-04-07T14:37:28.489Z,13.12
2023-04-07T14:42:29.719Z,13.02
2023-04-07T14:44:57.937Z,12.67
2023-04-07T14:47:25.746Z,12.46
2023-04-07T14:49:53.812Z,12.54
2023-04-07T14:52:24.349Z,12.35
2023-04-07T14:54:51.773Z,12.38
2023-04-07T14:57:20.592Z,12.38
2023-04-07T14:59:47.982Z,12.16
2023-04-07T15:02:15.546Z,12.18
2023-04-07T15:04:43.218Z,11.72
2023-04-07T15:07:10.821Z,11.72
2023-04-07T15:09:38.916Z,11.48
2023-04-07T15:12:06.370Z,11.47
2023-04-07T15:14:35.325Z,11.35
2023-04-07T15:17:02.749Z,11.26
2023-04-07T15:19:30.308Z,11.28
2023-04-07T15:21:57.661Z,11.27
2023-04-07T15:24:25.195Z,11.21
2023-04-07T15:26:52.656Z,11.22
2023-04-07T15:29:20.292Z,11.19
2023-04-07T15:31:48.993Z,11.11
2023-04-07T15:34:16.384Z,10.93
2023-04-07T15:36:43.792Z,10.80
2023-04-07T15:39:11.227Z,10.87
2023-04-07T15:41:38.667Z,10.77
2023-04-07T15:44:06.469Z,10.78
2023-04-07T15:46:34.145Z,10.69
2023-04-07T15:49:03.181Z,10.52
2023-04-07T15:51:31.043Z,10.34
2023-04-07T15:53:59.890Z,10.19
2023-04-07T15:56:27.608Z,10.11
2023-04-07T15:58:55.088Z,9.93
2023-04-07T16:01:23.548Z,9.78
2023-04-07T16:03:51.622Z,9.73
2023-04-07T16:06:20.909Z,9.67
2023-04-07T16:08:48.351Z,9.56
2023-04-07T16:11:15.731Z,9.78
2023-04-07T16:13:43.148Z,9.66
2023-04-07T16:16:10.839Z,9.72
2023-04-07T16:18:38.322Z,9.75
2023-04-07T16:21:06.834Z,9.92
2023-04-07T16:23:35.692Z,10.02
2023-04-07T16:26:04.365Z,10.00
2023-04-07T16:28:31.600Z,10.00
2023-04-07T16:30:59.423Z,9.96
2023-04-07T16:33:28.173Z,10.03
2023-04-07T16:35:55.383Z,10.43
2023-04-07T16:38:23.127Z,10.43
2023-04-07T16:41:03.252Z,10.50
2023-04-07T16:43:31.987Z,10.56
2023-04-07T16:46:00.394Z,10.76
2023-04-07T16:48:28.085Z,10.70
2023-04-07T16:50:55.514Z,10.74
2023-04-07T16:53:23.015Z,10.77
2023-04-07T16:55:51.909Z,10.78
2023-04-07T16:58:20.134Z,10.76
2023-04-07T17:00:47.668Z,10.67
2023-04-07T17:03:15.567Z,10.55
2023-04-07T17:05:44.619Z,10.48
2023-04-07T17:08:12.450Z,10.38
2023-04-07T17:10:40.207Z,10.48
2023-04-07T17:13:08.994Z,10.48
2023-04-07T17:15:37.930Z,10.47
2023-04-07T17:18:05.608Z,10.42
2023-04-07T17:20:33.207Z,10.37
2023-04-07T17:23:00.791Z,10.22
2023-04-07T17:25:28.266Z,10.18
2023-04-07T17:27:55.714Z,10.11
2023-04-07T17:30:24.542Z,9.81
2023-04-07T17:32:53.384Z,9.69
2023-04-07T17:35:21.572Z,9.45
2023-04-07T17:37:50.775Z,9.15
2023-04-07T17:40:18.486Z,9.12
2023-04-07T17:42:46.209Z,9.09
2023-04-07T17:45:13.683Z,9.00
2023-04-07T17:47:42.524Z,8.88
2023-04-07T17:50:11.025Z,8.82
2023-04-07T17:52:38.860Z,8.77
2023-04-07T17:55:08.115Z,8.67
2023-04-07T17:57:36.448Z,8.65
2023-04-07T18:00:04.503Z,8.55
2023-04-07T18:02:42.135Z,8.54
2023-04-07T18:05:10.573Z,8.34
2023-04-07T18:07:38.771Z,8.23
2023-04-07T18:10:07.427Z,8.23
2023-04-07T18:12:35.370Z,8.20
2023-04-07T18:15:04.538Z,8.12
2023-04-07T18:17:32.101Z,8.11
2023-04-07T18:20:02.132Z,8.16
2023-04-07T18:22:31.392Z,8.24
2023-04-07T18:25:00.244Z,8.24
2023-04-07T18:27:28.361Z,8.24
2023-04-07T18:29:56.160Z,8.21
2023-04-07T18:32:23.802Z,8.19
2023-04-07T18:34:53.550Z,8.24
2023-04-07T18:37:23.455Z,8.29
2023-04-07T18:39:54.115Z,8.31
2023-04-07T18:42:21.674Z,8.28
2023-04-07T18:44:49.251Z,8.32
2023-04-07T18:47:17.204Z,8.33
2023-04-07T18:49:44.954Z,8.31
2023-04-07T18:52:12.529Z,8.24
2023-04-07T18:54:41.326Z,8.27
2023-04-07T18:57:08.827Z,8.23
2023-04-07T18:59:36.605Z,8.21
2023-04-07T19:02:04.251Z,8.21
2023-04-07T19:04:31.822Z,8.17
2023-04-07T19:06:59.484Z,8.16
2023-04-07T19:09:27.003Z,8.12
2023-04-07T19:11:56.974Z,8.08
2023-04-07T19:14:24.507Z,8.07
2023-04-07T19:16:52.288Z,8.01
2023-04-07T19:19:19.794Z,8.00
2023-04-07T19:21:47.425Z,7.97
2023-04-07T19:24:14.855Z,7.90
2023-04-07T19:26:42.921Z,7.91
2023-04-07T19:29:12.491Z,7.90
2023-04-07T19:31:40.108Z,7.90
2023-04-07T19:34:07.730Z,7.88
2023-04-07T19:36:35.264Z,7.86
2023-04-07T19:39:04.555Z,7.85
2023-04-07T19:41:32.155Z,7.83
2023-04-07T19:43:59.545Z,7.86
2023-04-07T19:46:28.818Z,7.82
2023-04-07T19:48:56.522Z,7.75
2023-04-07T19:51:24.153Z,7.76
2023-04-07T19:53:51.804Z,7.65
2023-04-07T19:56:19.570Z,7.68
2023-04-07T19:58:47.405Z,7.65
2023-04-07T20:01:16.943Z,7.54
2023-04-07T20:03:46.733Z,7.55
2023-04-07T20:06:15.134Z,7.54
2023-04-07T20:08:42.886Z,7.49
2023-04-07T20:11:12.695Z,7.48
2023-04-07T20:13:40.727Z,7.44
2023-04-07T20:16:08.639Z,7.46
2023-04-07T20:18:36.512Z,7.44
2023-04-07T20:21:09.775Z,7.43
2023-04-07T20:23:37.751Z,7.45
2023-04-07T20:26:05.560Z,7.47
2023-04-07T20:28:32.959Z,7.47
2023-04-07T20:31:01.607Z,7.47
2023-04-07T20:33:29.081Z,7.51
2023-04-07T20:35:56.607Z,7.54
2023-04-07T20:38:25.547Z,7.52
2023-04-07T20:40:53.263Z,7.46
2023-04-07T20:43:23.561Z,7.41
2023-04-07T20:45:52.127Z,7.36
2023-04-07T20:48:28.720Z,7.34
2023-04-07T20:50:56.210Z,7.37
2023-04-07T20:53:25.098Z,7.33
2023-04-07T20:55:52.535Z,7.37
2023-04-07T20:58:19.985Z,7.32
2023-04-07T21:00:47.749Z,7.34
2023-04-07T21:03:15.354Z,7.34
2023-04-07T21:05:44.916Z,7.34
2023-04-07T21:08:14.366Z,7.32
2023-04-07T21:10:43.431Z,7.33
2023-04-07T21:13:10.711Z,7.33
2023-04-07T21:15:38.373Z,7.15
2023-04-07T21:18:05.943Z,7.15
2023-04-07T21:20:35.661Z,7.16
2023-04-07T21:23:03.279Z,7.15
2023-04-07T21:25:30.779Z,7.09
2023-04-07T21:27:59.593Z,7.06
2023-04-07T21:30:26.830Z,7.03
2023-04-07T21:32:54.297Z,7.05
2023-04-07T21:35:22.185Z,7.05
2023-04-07T21:37:49.583Z,7.09
2023-04-07T21:40:17.088Z,7.05
2023-04-07T21:42:44.466Z,7.06
2023-04-07T21:45:13.390Z,7.04
2023-04-07T21:47:40.977Z,7.06
2023-04-07T21:50:09.130Z,7.08
2023-04-07T21:52:36.782Z,7.04
2023-04-07T21:55:04.932Z,7.04
2023-04-07T21:57:32.373Z,7.10
2023-04-07T21:59:59.853Z,7.09
2023-04-07T22:02:29.181Z,7.13
2023-04-07T22:04:56.819Z,7.17
2023-04-07T22:07:24.468Z,7.16
2023-04-07T22:09:51.970Z,7.18
2023-04-07T22:12:19.325Z,7.14
2023-04-07T22:14:46.759Z,7.12
2023-04-07T22:17:14.230Z,7.10
2023-04-07T22:19:43.389Z,7.07
2023-04-07T22:22:10.786Z,7.06
2023-04-07T22:24:38.127Z,7.02
2023-04-07T22:27:05.747Z,7.01
2023-04-07T22:29:33.123Z,7.05
2023-04-07T22:32:00.505Z,7.04
2023-04-07T22:34:27.869Z,7.05
2023-04-07T22:36:56.648Z,7.02
2023-04-07T22:39:23.854Z,6.97
2023-04-07T22:41:51.204Z,6.96
2023-04-07T22:44:18.535Z,6.98
2023-04-07T22:46:46.033Z,6.98
2023-04-07T22:49:13.499Z,7.02
2023-04-07T22:51:41.224Z,7.04
2023-04-07T22:54:09.955Z,7.07
2023-04-07T22:56:37.311Z,7.10
2023-04-07T22:59:05.872Z,7.12
2023-04-07T23:01:33.833Z,7.13
2023-04-07T23:04:01.498Z,7.11
2023-04-07T23:06:29.025Z,7.12
2023-04-07T23:08:56.799Z,7.13
2023-04-07T23:11:25.657Z,7.13
2023-04-07T23:13:53.017Z,7.09
2023-04-07T23:16:20.522Z,7.08
2023-04-07T23:18:48.111Z,7.09
2023-04-07T23:21:15.749Z,7.11
2023-04-07T23:23:43.384Z,7.08
2023-04-07T23:26:10.812Z,7.12
2023-04-07T23:28:39.615Z,7.05
2023-04-07T23:31:07.109Z,7.02
2023-04-07T23:33:34.534Z,7.05
2023-04-07T23:36:02.683Z,7.02
2023-04-07T23:38:30.536Z,7.05
2023-04-07T23:40:58.023Z,7.05
2023-04-07T23:43:25.568Z,7.05
2023-04-07T23:45:54.408Z,6.98
2023-04-07T23:48:21.674Z,7.00
2023-04-07T23:50:50.053Z,7.00
2023-04-07T23:53:17.763Z,6.92
2023-04-07T23:55:45.291Z,6.90
2023-04-07T23:58:12.732Z,6.88
